Time;durP1;ratioP1;P1;durP2;ratioP2;P2;SDS_P1;SDS_P2;PMS_P1;PMS_P2;Temp;Humidity;BMP_temperature;BMP_pressure;BME280_temperature;BME280_humidity;BME280_pressure;Samples;Min_cycle;Max_cycle;Signal;HPM_P1;HPM_P2
2022/03/17 00:02:04;;;;;;;0.70;0.70;;;8.00;1.00;;;;;;5114167;28;20543;-73
2022/03/17 00:04:31;;;;;;;0.60;0.60;;;8.00;1.00;;;;;;5114050;28;20165;-71
2022/03/17 00:06:57;;;;;;;0.70;0.70;;;8.00;1.00;;;;;;5113960;28;20165;-72
2022/03/17 00:09:23;;;;;;;0.70;0.70;;;8.00;1.00;;;;;;5113566;28;20269;-75
2022/03/17 00:11:48;;;;;;;0.70;0.70;;;7.90;1.00;;;;;;5113752;28;20640;-73
2022/03/17 00:14:14;;;;;;;0.60;0.60;;;7.80;1.00;;;;;;5113930;28;20177;-74
2022/03/17 00:16:40;;;;;;;0.70;0.70;;;7.90;1.00;;;;;;5113755;28;20548;-75
2022/03/17 00:19:07;;;;;;;0.70;0.70;;;7.90;1.00;;;;;;5113084;28;20271;-74
2022/03/17 00:21:34;;;;;;;0.70;0.70;;;8.00;1.00;;;;;;5112938;28;20249;-74
2022/03/17 00:24:00;;;;;;;0.80;0.80;;;8.00;1.00;;;;;;5113538;28;20177;-75
2022/03/17 00:26:25;;;;;;;0.60;0.60;;;8.00;99.90;;;;;;5113574;28;20179;-73
2022/03/17 00:28:51;;;;;;;0.60;0.60;;;8.00;99.90;;;;;;5113175;28;20575;-77
2022/03/17 00:31:17;;;;;;;0.60;0.60;;;7.90;99.90;;;;;;5113320;28;20189;-73
2022/03/17 00:33:43;;;;;;;0.60;0.60;;;7.80;1.00;;;;;;5113277;28;20238;-74
2022/03/17 00:36:09;;;;;;;0.70;0.70;;;7.70;1.00;;;;;;5113692;28;20169;-72
2022/03/17 00:38:35;;;;;;;0.60;0.60;;;7.70;1.00;;;;;;5113525;28;20177;-72
2022/03/17 00:41:00;;;;;;;0.60;0.60;;;7.60;1.00;;;;;;5112471;28;20573;-74
2022/03/17 00:43:26;;;;;;;0.60;0.60;;;7.60;1.00;;;;;;5113295;28;20169;-75
2022/03/17 00:45:51;;;;;;;0.70;0.70;;;7.60;1.00;;;;;;5113148;28;20579;-74
2022/03/17 00:48:17;;;;;;;0.80;0.80;;;7.50;1.00;;;;;;5113120;28;20631;-72
2022/03/17 00:50:42;;;;;;;0.70;0.70;;;7.50;1.00;;;;;;5112430;28;20197;-74
2022/03/17 00:53:08;;;;;;;0.70;0.70;;;7.30;1.00;;;;;;5113130;28;20188;-74
2022/03/17 00:55:33;;;;;;;0.60;0.60;;;7.20;1.00;;;;;;5113080;28;20577;-74
2022/03/17 00:57:59;;;;;;;0.70;0.70;;;7.20;1.00;;;;;;5112941;28;20169;-74
2022/03/17 01:00:25;;;;;;;0.70;0.70;;;7.30;1.00;;;;;;5112092;28;20262;-75
2022/03/17 01:02:53;;;;;;;0.70;0.70;;;7.30;1.00;;;;;;5112585;28;20662;-74
2022/03/17 01:05:20;;;;;;;0.67;0.67;;;7.20;1.00;;;;;;5112660;28;20611;-73
2022/03/17 01:07:46;;;;;;;0.70;0.70;;;7.20;1.00;;;;;;5112758;28;20666;-75
2022/03/17 01:10:17;;;;;;;0.70;0.70;;;7.20;1.00;;;;;;5112126;28;20200;-75
2022/03/17 01:12:46;;;;;;;0.60;0.60;;;7.20;1.00;;;;;;5112624;28;20264;-73
2022/03/17 01:15:13;;;;;;;0.67;0.67;;;7.20;1.00;;;;;;5112478;28;20169;-76
2022/03/17 01:17:39;;;;;;;0.60;0.60;;;7.20;1.00;;;;;;5112488;28;20187;-74
2022/03/17 01:20:05;;;;;;;0.70;0.70;;;7.20;1.00;;;;;;5111886;28;20295;-75
2022/03/17 01:22:32;;;;;;;0.60;0.60;;;7.30;1.00;;;;;;5094213;28;20174;-74
2022/03/17 01:24:58;;;;;;;0.70;0.70;;;7.20;1.00;;;;;;5112409;28;20261;-73
2022/03/17 01:27:24;;;;;;;0.70;0.70;;;7.20;1.00;;;;;;5112320;28;20263;-74
2022/03/17 01:29:53;;;;;;;0.60;0.60;;;7.20;1.00;;;;;;5111738;28;20292;-75
2022/03/17 01:32:20;;;;;;;0.70;0.70;;;7.10;1.00;;;;;;5112484;28;20185;-74
2022/03/17 01:34:47;;;;;;;0.70;0.70;;;7.10;1.00;;;;;;5112211;28;20189;-74
2022/03/17 01:37:12;;;;;;;0.80;0.80;;;6.70;1.00;;;;;;5112319;28;20173;-74
2022/03/17 01:39:38;;;;;;;0.60;0.60;;;6.60;1.00;;;;;;5112131;28;20548;-76
2022/03/17 01:42:06;;;;;;;0.67;0.67;;;6.50;1.00;;;;;;5112126;28;20181;-73
2022/03/17 01:44:33;;;;;;;0.60;0.60;;;6.50;1.00;;;;;;5112082;28;20177;-72
2022/03/17 01:49:43;;;;;;;0.60;0.60;;;6.30;1.00;;;;;;5111694;28;20242;-75
2022/03/17 01:52:09;;;;;;;0.73;0.73;;;6.40;1.00;;;;;;5111950;28;20255;-74
2022/03/17 01:54:35;;;;;;;0.60;0.60;;;6.40;1.00;;;;;;5112010;28;20269;-74
2022/03/17 01:57:03;;;;;;;0.70;0.70;;;6.40;1.00;;;;;;5111913;28;20181;-72
2022/03/17 01:59:31;;;;;;;0.70;0.70;;;6.40;1.00;;;;;;5111698;28;20200;-74
2022/03/17 02:01:57;;;;;;;0.63;0.63;;;6.30;1.00;;;;;;5111958;28;20297;-72
2022/03/17 02:04:23;;;;;;;0.67;0.67;;;6.20;3.30;;;;;;5112082;28;20308;-73
2022/03/17 02:06:48;;;;;;;0.60;0.60;;;6.20;8.20;;;;;;5111762;28;20242;-75
2022/03/17 02:09:14;;;;;;;0.70;0.70;;;6.30;1.00;;;;;;5111022;28;20180;-75
2022/03/17 02:14:25;;;;;;;0.70;0.70;;;6.20;1.00;;;;;;5111977;28;20230;-72
2022/03/17 02:16:51;;;;;;;0.70;0.70;;;6.20;1.00;;;;;;5112152;28;20181;-74
2022/03/17 02:19:22;;;;;;;0.70;0.70;;;6.20;1.00;;;;;;5111112;28;20188;-75
2022/03/17 02:21:48;;;;;;;0.63;0.63;;;6.40;1.00;;;;;;5111566;28;20666;-72
2022/03/17 02:27:02;;;;;;;0.70;0.70;;;6.40;1.00;;;;;;5118835;28;20208;-74
2022/03/17 02:29:29;;;;;;;0.70;0.70;;;6.10;27.40;;;;;;5116250;28;20274;-74
2022/03/17 02:31:55;;;;;;;0.60;0.60;;;6.00;84.90;;;;;;5113804;28;20727;-73
2022/03/17 02:34:20;;;;;;;0.70;0.70;;;6.10;71.60;;;;;;5111358;28;20275;-74
2022/03/17 02:36:51;;;;;;;0.70;0.70;;;6.00;70.00;;;;;;5111430;28;20177;-72
2022/03/17 02:39:18;;;;;;;0.60;0.60;;;6.00;93.50;;;;;;5110991;28;20181;-73
2022/03/17 02:41:44;;;;;;;0.67;0.67;;;6.00;89.00;;;;;;5111586;28;20213;-74
2022/03/17 02:44:10;;;;;;;0.67;0.67;;;6.10;65.20;;;;;;5111423;28;20169;-75
2022/03/17 02:46:36;;;;;;;0.70;0.70;;;5.70;59.70;;;;;;5114443;28;20544;-73
2022/03/17 02:49:02;;;;;;;0.70;0.70;;;6.10;45.00;;;;;;5114986;28;20165;-75
2022/03/17 02:51:28;;;;;;;0.60;0.60;;;6.00;39.90;;;;;;5115667;28;20189;-74
2022/03/17 02:53:53;;;;;;;0.60;0.60;;;6.10;57.80;;;;;;5115609;28;20172;-72
2022/03/17 02:56:19;;;;;;;0.60;0.60;;;6.10;53.70;;;;;;5115538;28;20495;-72
2022/03/17 02:58:44;;;;;;;0.70;0.70;;;6.20;26.20;;;;;;5115408;28;20242;-74
2022/03/17 03:01:10;;;;;;;0.70;0.70;;;6.20;25.20;;;;;;5114688;28;20200;-72
2022/03/17 03:03:35;;;;;;;0.70;0.70;;;6.10;31.00;;;;;;5114991;28;20214;-72
2022/03/17 03:06:01;;;;;;;0.60;0.60;;;6.10;49.80;;;;;;5115117;28;20173;-74
2022/03/17 03:08:27;;;;;;;0.70;0.70;;;6.20;49.30;;;;;;5115368;28;20165;-73
2022/03/17 03:10:53;;;;;;;0.70;0.70;;;6.30;1.00;;;;;;5114478;28;20220;-75
2022/03/17 03:13:19;;;;;;;0.70;0.70;;;6.40;1.00;;;;;;5115055;28;20616;-72
2022/03/17 03:15:45;;;;;;;0.60;0.60;;;6.50;1.00;;;;;;5115016;28;20200;-72
2022/03/17 03:18:10;;;;;;;0.77;0.77;;;6.60;1.00;;;;;;5114999;28;20541;-74
2022/03/17 03:20:37;;;;;;;0.70;0.70;;;6.60;1.00;;;;;;5114359;28;20383;-74
2022/03/17 03:23:03;;;;;;;0.70;0.70;;;6.70;1.00;;;;;;5114769;28;20604;-74
2022/03/17 03:25:28;;;;;;;0.60;0.60;;;6.70;1.00;;;;;;5114902;28;20173;-74
2022/03/17 03:27:54;;;;;;;0.70;0.70;;;6.70;1.00;;;;;;5114806;28;20200;-73
2022/03/17 03:30:20;;;;;;;0.70;0.70;;;6.70;1.00;;;;;;5114016;28;20697;-75
2022/03/17 03:32:46;;;;;;;0.70;0.70;;;6.70;1.00;;;;;;5114388;28;20647;-71
2022/03/17 03:37:56;;;;;;;0.70;0.70;;;6.60;1.00;;;;;;5114830;28;20289;-73
2022/03/17 03:40:22;;;;;;;0.67;0.67;;;6.60;1.00;;;;;;5113744;28;20679;-75
2022/03/17 03:42:48;;;;;;;0.80;0.80;;;6.50;1.00;;;;;;5114285;28;20176;-74
2022/03/17 03:45:13;;;;;;;0.63;0.63;;;6.30;1.00;;;;;;5114491;28;20173;-73
2022/03/17 03:47:39;;;;;;;0.73;0.73;;;6.30;7.40;;;;;;5114173;28;20649;-74
2022/03/17 03:50:05;;;;;;;0.70;0.70;;;6.30;26.40;;;;;;5113991;28;20195;-75
2022/03/17 03:52:30;;;;;;;0.70;0.70;;;6.40;2.80;;;;;;5113968;28;20173;-75
2022/03/17 03:54:56;;;;;;;0.67;0.67;;;6.40;1.00;;;;;;5114267;28;20179;-73
2022/03/17 03:57:21;;;;;;;0.60;0.60;;;6.40;1.00;;;;;;5114040;28;20257;-73
2022/03/17 03:59:47;;;;;;;0.60;0.60;;;6.50;1.00;;;;;;5113602;28;20562;-74
2022/03/17 04:02:13;;;;;;;0.70;0.70;;;6.50;1.00;;;;;;5114360;28;20181;-74
2022/03/17 04:04:40;;;;;;;0.70;0.70;;;6.50;1.00;;;;;;5114220;28;20532;-71
2022/03/17 04:07:11;;;;;;;0.70;0.70;;;6.50;1.00;;;;;;5114027;28;20180;-73
2022/03/17 04:09:41;;;;;;;0.70;0.70;;;6.50;1.00;;;;;;5113423;28;20193;-72
2022/03/17 04:12:09;;;;;;;0.60;0.60;;;6.50;1.00;;;;;;5113945;28;20180;-73
2022/03/17 04:14:35;;;;;;;0.60;0.60;;;6.50;1.00;;;;;;5113566;28;20253;-72
2022/03/17 04:17:01;;;;;;;0.70;0.70;;;6.50;1.00;;;;;;5113854;28;20517;-73
2022/03/17 04:19:27;;;;;;;0.70;0.70;;;6.50;7.20;;;;;;5113336;28;20176;-74
2022/03/17 04:21:53;;;;;;;0.70;0.70;;;6.50;7.60;;;;;;5113580;28;20342;-74
2022/03/17 04:24:20;;;;;;;0.60;0.60;;;6.40;2.10;;;;;;5113735;28;20209;-74
2022/03/17 04:26:46;;;;;;;0.67;0.67;;;6.50;1.00;;;;;;5113789;28;20551;-74
2022/03/17 04:29:13;;;;;;;0.60;0.60;;;6.50;1.00;;;;;;5113046;28;20181;-73
2022/03/17 04:31:40;;;;;;;0.60;0.60;;;6.50;1.00;;;;;;5113663;28;20173;-73
2022/03/17 04:34:07;;;;;;;0.60;0.60;;;6.50;1.00;;;;;;5113180;28;20268;-73
2022/03/17 04:36:32;;;;;;;0.70;0.70;;;6.60;1.00;;;;;;5113491;28;20188;-74
2022/03/17 04:38:59;;;;;;;0.70;0.70;;;6.60;1.00;;;;;;5112680;28;20173;-72
2022/03/17 04:41:24;;;;;;;0.70;0.70;;;6.60;1.00;;;;;;5113346;28;20236;-72
2022/03/17 04:43:50;;;;;;;0.60;0.60;;;6.60;1.00;;;;;;5113235;28;20545;-73
2022/03/17 04:46:16;;;;;;;0.70;0.70;;;6.60;1.00;;;;;;5113438;28;20681;-72
2022/03/17 04:48:43;;;;;;;0.80;0.80;;;6.60;1.00;;;;;;5113257;28;20173;-71
2022/03/17 04:51:08;;;;;;;0.60;0.60;;;6.60;1.00;;;;;;5112653;28;20193;-72
2022/03/17 04:53:34;;;;;;;0.60;0.60;;;6.50;1.00;;;;;;5113068;28;20655;-72
2022/03/17 04:56:03;;;;;;;0.77;0.77;;;6.40;29.00;;;;;;5112944;28;20548;-73
2022/03/17 04:58:31;;;;;;;0.70;0.70;;;6.40;46.00;;;;;;5113205;28;20169;-73
2022/03/17 05:00:57;;;;;;;0.70;0.70;;;6.30;81.70;;;;;;5112356;28;20221;-73
2022/03/17 05:03:23;;;;;;;0.70;0.70;;;6.40;56.30;;;;;;5113343;28;20169;-73
2022/03/17 05:05:49;;;;;;;0.70;0.70;;;6.40;37.70;;;;;;5113061;28;20188;-75
2022/03/17 05:08:14;;;;;;;0.70;0.70;;;6.40;68.80;;;;;;5112525;28;20651;-73
2022/03/17 05:10:44;;;;;;;0.80;0.80;;;6.40;61.80;;;;;;5112497;28;20193;-72
2022/03/17 05:13:11;;;;;;;0.70;0.70;;;6.40;53.10;;;;;;5112848;28;20639;-73
2022/03/17 05:15:38;;;;;;;0.50;0.50;;;6.50;74.80;;;;;;5113154;28;20180;-71
2022/03/17 05:18:07;;;;;;;0.67;0.67;;;6.50;34.70;;;;;;5112962;28;20174;-73
2022/03/17 05:20:38;;;;;;;0.60;0.60;;;6.40;1.00;;;;;;5112328;28;20216;-73
2022/03/17 05:23:05;;;;;;;0.67;0.67;;;6.40;1.00;;;;;;5112671;28;20184;-72
2022/03/17 05:25:31;;;;;;;0.60;0.60;;;6.40;17.70;;;;;;5112779;28;20173;-73
2022/03/17 05:27:57;;;;;;;0.63;0.63;;;6.40;49.20;;;;;;5112836;28;20173;-74
2022/03/17 05:30:23;;;;;;;0.60;0.60;;;6.40;26.30;;;;;;5112179;28;20218;-73
2022/03/17 05:32:48;;;;;;;0.70;0.70;;;6.60;1.00;;;;;;5112622;28;20293;-71
2022/03/17 05:35:15;;;;;;;0.60;0.60;;;6.50;1.00;;;;;;5112478;28;20722;-72
2022/03/17 05:37:41;;;;;;;0.60;0.60;;;6.50;1.00;;;;;;5112585;28;20231;-74
2022/03/17 05:40:13;;;;;;;0.70;0.70;;;6.60;1.00;;;;;;5111720;28;20220;-72
2022/03/17 05:42:43;;;;;;;0.60;0.60;;;6.60;1.00;;;;;;5112623;28;20177;-73
2022/03/17 05:45:09;;;;;;;0.70;0.70;;;6.60;1.00;;;;;;5112462;28;20165;-75
2022/03/17 05:47:46;;;;;;;0.60;0.60;;;6.40;36.10;;;;;;5112728;28;20169;-74
2022/03/17 05:50:14;;;;;;;0.60;0.60;;;6.40;77.50;;;;;;5111742;28;20229;-72
2022/03/17 05:52:42;;;;;;;0.70;0.70;;;6.40;48.60;;;;;;5112244;28;20599;-73
2022/03/17 05:55:18;;;;;;;0.67;0.67;;;6.40;70.90;;;;;;5112408;28;20185;-74
2022/03/17 05:57:45;;;;;;;0.60;0.60;;;6.40;81.60;;;;;;5112507;28;20169;-72
2022/03/17 06:00:13;;;;;;;0.70;0.70;;;6.40;36.90;;;;;;5111507;28;20189;-73
2022/03/17 06:02:39;;;;;;;0.70;0.70;;;6.40;33.90;;;;;;5099371;28;20182;-71
2022/03/17 06:05:06;;;;;;;0.60;0.60;;;6.50;80.20;;;;;;5080419;28;20574;-71
2022/03/17 06:07:52;;;;;;;0.60;0.60;;;6.60;66.20;;;;;;5079578;28;20572;-72
2022/03/17 06:10:23;;;;;;;0.70;0.70;;;6.50;63.10;;;;;;5081361;28;20213;-72
2022/03/17 06:12:54;;;;;;;0.70;0.70;;;6.60;80.20;;;;;;5080978;28;20178;-71
2022/03/17 06:15:21;;;;;;;0.60;0.60;;;6.60;89.20;;;;;;5079928;28;20183;-72
2022/03/17 06:17:50;;;;;;;0.60;0.60;;;6.60;86.30;;;;;;5081724;28;20174;-71
2022/03/17 06:20:17;;;;;;;0.70;0.70;;;6.60;1.00;;;;;;5080005;28;20758;-73
2022/03/17 06:22:46;;;;;;;0.60;0.60;;;6.60;1.00;;;;;;5080089;28;20181;-73
2022/03/17 06:25:18;;;;;;;0.60;0.60;;;6.60;1.00;;;;;;5080890;28;20260;-72
2022/03/17 06:27:45;;;;;;;0.67;0.67;;;6.60;1.00;;;;;;5081989;28;20181;-72
2022/03/17 06:30:16;;;;;;;0.70;0.70;;;6.70;1.00;;;;;;5080227;28;20572;-74
2022/03/17 06:32:42;;;;;;;0.57;0.57;;;6.90;1.00;;;;;;5080064;28;20174;-73
2022/03/17 06:35:10;;;;;;;0.60;0.60;;;6.80;1.00;;;;;;5081313;28;20213;-73
2022/03/17 06:37:37;;;;;;;0.67;0.67;;;6.80;1.00;;;;;;5081863;28;20167;-71
2022/03/17 06:40:04;;;;;;;0.60;0.60;;;6.70;1.00;;;;;;5081474;28;20194;-72
2022/03/17 06:42:30;;;;;;;0.70;0.70;;;6.80;1.00;;;;;;5080442;28;20189;-69
2022/03/17 06:44:56;;;;;;;0.63;0.63;;;6.90;1.00;;;;;;5080143;28;20174;-71
2022/03/17 06:47:21;;;;;;;0.77;0.77;;;7.00;1.00;;;;;;5081878;28;20166;-72
2022/03/17 06:49:47;;;;;;;0.60;0.60;;;6.90;1.00;;;;;;5090861;28;20263;-70
2022/03/17 06:52:13;;;;;;;0.60;0.60;;;6.90;1.00;;;;;;5091264;28;20192;-71
2022/03/17 06:54:38;;;;;;;0.50;0.50;;;7.00;1.00;;;;;;5091372;28;20182;-69
2022/03/17 06:57:04;;;;;;;0.70;0.70;;;7.10;1.00;;;;;;5091264;28;20644;-70
2022/03/17 06:59:29;;;;;;;0.60;0.60;;;7.20;1.00;;;;;;5090747;28;20265;-72
2022/03/17 07:01:55;;;;;;;0.60;0.60;;;7.30;1.00;;;;;;5091415;28;20688;-70
2022/03/17 07:04:20;;;;;;;0.60;0.60;;;7.20;1.00;;;;;;5091317;28;20177;-71
2022/03/17 07:06:46;;;;;;;0.70;0.70;;;7.20;1.00;;;;;;5091364;28;20174;-73
2022/03/17 07:09:12;;;;;;;0.67;0.67;;;7.20;1.00;;;;;;5090905;28;20174;-72
2022/03/17 07:11:37;;;;;;;0.60;0.60;;;7.40;1.00;;;;;;5072838;28;20214;-72
2022/03/17 07:14:03;;;;;;;0.60;0.60;;;7.40;1.00;;;;;;5091390;28;20174;-73
2022/03/17 07:16:28;;;;;;;0.80;0.80;;;7.40;1.00;;;;;;5091268;28;20543;-71
2022/03/17 07:18:54;;;;;;;0.70;0.70;;;7.40;1.00;;;;;;5090811;28;20173;-72
2022/03/17 07:21:19;;;;;;;0.60;0.60;;;7.50;1.00;;;;;;5090951;28;20595;-70
2022/03/17 07:23:45;;;;;;;0.60;0.60;;;7.50;1.00;;;;;;5091069;28;20266;-71
2022/03/17 07:26:10;;;;;;;0.60;0.60;;;7.50;1.00;;;;;;5091146;28;20643;-71
2022/03/17 07:28:36;;;;;;;0.60;0.60;;;7.50;1.00;;;;;;5092826;28;20620;-72
2022/03/17 07:31:01;;;;;;;0.63;0.63;;;7.70;1.00;;;;;;5093506;28;20197;-73
2022/03/17 07:33:27;;;;;;;0.70;0.70;;;7.70;1.00;;;;;;5094665;28;20173;-73
2022/03/17 07:35:53;;;;;;;0.60;0.60;;;7.70;1.00;;;;;;5095168;28;20707;-73
2022/03/17 07:38:19;;;;;;;0.60;0.60;;;7.70;99.90;;;;;;5094495;28;20166;-74
2022/03/17 07:40:46;;;;;;;0.70;0.70;;;7.90;99.90;;;;;;5096802;28;20301;-72
2022/03/17 07:43:12;;;;;;;0.80;0.80;;;8.00;1.00;;;;;;5094762;28;20178;-71
2022/03/17 07:45:37;;;;;;;0.70;0.70;;;8.00;99.90;;;;;;5094571;28;20181;-73
2022/03/17 07:48:03;;;;;;;0.60;0.60;;;8.00;99.90;;;;;;5094300;28;20555;-72
2022/03/17 07:50:29;;;;;;;0.60;0.60;;;7.90;1.00;;;;;;5094061;28;20724;-71
2022/03/17 07:52:54;;;;;;;0.70;0.70;;;7.80;1.00;;;;;;5094229;28;20170;-72
2022/03/17 07:55:20;;;;;;;0.60;0.60;;;8.10;1.00;;;;;;5094148;28;20580;-74
2022/03/17 07:57:46;;;;;;;0.60;0.60;;;8.20;1.00;;;;;;5094276;28;20640;-72
2022/03/17 08:00:12;;;;;;;0.60;0.60;;;8.40;1.00;;;;;;5093676;28;20193;-71
2022/03/17 08:02:38;;;;;;;0.60;0.60;;;8.40;1.00;;;;;;5094176;28;20288;-72
2022/03/17 08:05:05;;;;;;;0.70;0.70;;;8.40;1.00;;;;;;5075861;28;20181;-71
2022/03/17 08:07:32;;;;;;;0.67;0.67;;;8.40;51.30;;;;;;5093457;28;20562;-73
2022/03/17 08:09:58;;;;;;;0.67;0.67;;;8.30;1.00;;;;;;5093232;28;20202;-72
2022/03/17 08:12:26;;;;;;;0.60;0.60;;;8.30;99.90;;;;;;5094025;28;20174;-71
2022/03/17 08:14:55;;;;;;;0.70;0.70;;;8.40;46.30;;;;;;5096776;28;20186;-74
2022/03/17 08:17:20;;;;;;;0.60;0.60;;;8.60;99.90;;;;;;5095858;28;20174;-72
2022/03/17 08:19:46;;;;;;;0.70;0.70;;;8.50;6.30;;;;;;5092950;28;20253;-74
2022/03/17 08:22:11;;;;;;;0.60;0.60;;;8.60;99.90;;;;;;5093565;28;20225;-70
2022/03/17 08:24:37;;;;;;;0.70;0.70;;;8.60;99.90;;;;;;5093525;28;20170;-73
2022/03/17 08:27:03;;;;;;;0.60;0.60;;;8.50;99.90;;;;;;5093903;28;20181;-74
2022/03/17 08:29:29;;;;;;;0.70;0.70;;;8.70;78.20;;;;;;5093155;28;20213;-74
2022/03/17 08:31:55;;;;;;;0.70;0.70;;;8.60;99.90;;;;;;5093498;28;20178;-73
2022/03/17 08:34:21;;;;;;;0.70;0.70;;;8.60;91.60;;;;;;5093392;28;20197;-75
2022/03/17 08:36:46;;;;;;;0.60;0.60;;;8.70;99.90;;;;;;5093436;28;20178;-71
2022/03/17 08:39:12;;;;;;;0.60;0.60;;;8.60;99.90;;;;;;5093121;28;20243;-71
2022/03/17 08:41:38;;;;;;;0.50;0.50;;;8.70;99.90;;;;;;5095180;28;20699;-73
2022/03/17 08:44:04;;;;;;;0.50;0.50;;;8.60;99.90;;;;;;5094381;28;20685;-72
2022/03/17 08:49:19;;;;;;;0.70;0.70;;;8.90;1.00;;;;;;5109069;28;20682;-72
2022/03/17 08:51:47;;;;;;;0.57;0.57;;;9.00;1.00;;;;;;5100527;28;20189;-70
2022/03/17 08:54:12;;;;;;;0.70;0.70;;;9.10;99.90;;;;;;5093557;28;20182;-72
2022/03/17 08:56:38;;;;;;;0.70;0.70;;;9.10;1.00;;;;;;5093278;28;20803;-72
2022/03/17 08:59:05;;;;;;;0.60;0.60;;;9.10;1.00;;;;;;5092572;28;20172;-72
2022/03/17 09:01:30;;;;;;;0.50;0.50;;;9.20;1.00;;;;;;5092877;28;20224;-72
2022/03/17 09:03:56;;;;;;;0.63;0.63;;;9.20;1.00;;;;;;5092920;28;20178;-70
2022/03/17 09:06:22;;;;;;;0.53;0.53;;;9.30;99.90;;;;;;5092748;28;20271;-73
2022/03/17 09:08:48;;;;;;;0.60;0.60;;;9.30;1.00;;;;;;5092714;28;20274;-72
2022/03/17 09:11:14;;;;;;;0.77;0.77;;;9.30;1.00;;;;;;5092339;28;20740;-72
2022/03/17 09:13:40;;;;;;;0.60;0.60;;;9.40;99.90;;;;;;5086489;28;20291;-70
2022/03/17 09:16:06;;;;;;;0.50;0.50;;;9.50;78.40;;;;;;5092377;28;20701;-71
2022/03/17 09:18:32;;;;;;;0.53;0.53;;;9.50;1.00;;;;;;5092610;28;20170;-70
2022/03/17 09:21:00;;;;;;;0.67;0.67;;;9.30;1.00;;;;;;5092054;28;20225;-71
2022/03/17 09:23:25;;;;;;;0.60;0.60;;;9.30;84.10;;;;;;5092474;28;20647;-72
2022/03/17 09:25:52;;;;;;;0.60;0.60;;;9.40;1.00;;;;;;5092517;28;20189;-72
2022/03/17 09:28:17;;;;;;;0.60;0.60;;;9.50;1.00;;;;;;5092360;28;20200;-71
2022/03/17 09:30:43;;;;;;;0.50;0.50;;;9.60;99.90;;;;;;5091839;28;20190;-72
2022/03/17 09:33:09;;;;;;;0.60;0.60;;;9.60;1.00;;;;;;5092080;28;20201;-72
2022/03/17 09:35:34;;;;;;;0.70;0.70;;;9.50;1.00;;;;;;5092233;28;20612;-70
2022/03/17 09:38:01;;;;;;;0.60;0.60;;;9.60;99.90;;;;;;5086193;28;20174;-73
2022/03/17 09:40:26;;;;;;;0.63;0.63;;;9.70;1.00;;;;;;5080266;28;20216;-72
2022/03/17 09:43:18;;;;;;;0.57;0.57;;;9.70;1.00;;;;;;5082681;28;20162;-72
2022/03/17 09:45:42;;;;;;;0.53;0.53;;;9.70;25.40;;;;;;5079446;28;20174;-73
2022/03/17 09:48:10;;;;;;;0.50;0.50;;;9.80;1.00;;;;;;5081757;28;20257;-72
2022/03/17 09:50:37;;;;;;;0.53;0.53;;;9.80;1.00;;;;;;5079637;28;20756;-74
2022/03/17 09:53:03;;;;;;;0.60;0.60;;;9.90;1.00;;;;;;5081915;28;20193;-72
2022/03/17 09:55:28;;;;;;;0.50;0.50;;;9.80;22.30;;;;;;5081505;28;20505;-72
2022/03/17 09:57:54;;;;;;;0.60;0.60;;;9.90;25.10;;;;;;5086777;28;20181;-72
2022/03/17 10:00:19;;;;;;;0.60;0.60;;;10.00;1.00;;;;;;5080816;28;20244;-71
2022/03/17 10:02:45;;;;;;;0.50;0.50;;;10.10;1.00;;;;;;5080509;28;20185;-73
2022/03/17 10:05:11;;;;;;;0.60;0.60;;;10.10;99.90;;;;;;5088907;28;20508;-73
2022/03/17 10:07:39;;;;;;;0.50;0.50;;;10.00;1.00;;;;;;5091978;28;20182;-73
2022/03/17 10:10:05;;;;;;;0.50;0.50;;;10.10;1.00;;;;;;5091296;28;20201;-73
2022/03/17 10:12:31;;;;;;;0.50;0.50;;;10.20;1.00;;;;;;5091709;28;20173;-73
2022/03/17 10:14:58;;;;;;;0.50;0.50;;;10.40;99.90;;;;;;5091775;28;20173;-74
2022/03/17 10:17:38;;;;;;;0.60;0.60;;;10.40;1.00;;;;;;5092397;28;20170;-71
2022/03/17 10:20:28;;;;;;;0.50;0.50;;;10.50;1.00;;;;;;5079727;28;20193;-71
2022/03/17 10:22:55;;;;;;;0.60;0.60;;;10.40;1.00;;;;;;5085370;28;20208;-71
2022/03/17 10:25:24;;;;;;;0.60;0.60;;;10.30;1.00;;;;;;5081176;28;20224;-71
2022/03/17 10:27:50;;;;;;;0.50;0.50;;;10.50;1.00;;;;;;5080111;28;20175;-72
2022/03/17 10:30:23;;;;;;;0.50;0.50;;;10.50;99.90;;;;;;5081023;28;20243;-71
2022/03/17 10:32:56;;;;;;;0.50;0.50;;;10.50;99.90;;;;;;5085230;28;20193;-74
2022/03/17 10:35:36;;;;;;;0.47;0.47;;;10.50;99.90;;;;;;5091273;28;20197;-73
2022/03/17 10:38:12;;;;;;;0.60;0.60;;;10.50;99.90;;;;;;5091516;28;20223;-73
2022/03/17 10:40:38;;;;;;;0.70;0.70;;;10.50;99.90;;;;;;5090906;28;20295;-72
2022/03/17 10:43:34;;;;;;;0.50;0.50;;;10.40;1.00;;;;;;5091523;28;20257;-72
2022/03/17 10:46:13;;;;;;;0.60;0.60;;;10.50;1.00;;;;;;5078460;28;20235;-73
2022/03/17 10:48:52;;;;;;;0.60;0.60;;;10.50;1.00;;;;;;5091684;28;20185;-73
2022/03/17 10:51:38;;;;;;;0.50;0.50;;;10.40;99.90;;;;;;5091258;28;20198;-70
2022/03/17 10:54:07;;;;;;;0.50;0.50;;;10.40;99.90;;;;;;5091435;28;20185;-74
2022/03/17 10:56:35;;;;;;;0.60;0.60;;;10.40;99.90;;;;;;5091232;28;20677;-73
2022/03/17 10:59:01;;;;;;;0.50;0.50;;;10.60;99.90;;;;;;5084730;28;20190;-73
2022/03/17 11:01:42;;;;;;;0.50;0.50;;;10.60;1.00;;;;;;5087937;28;20213;-74
2022/03/17 11:04:08;;;;;;;0.50;0.50;;;10.70;1.00;;;;;;5073740;28;20227;-73
2022/03/17 11:06:34;;;;;;;0.50;0.50;;;10.70;1.00;;;;;;5072204;28;20190;-72
2022/03/17 11:09:01;;;;;;;0.60;0.60;;;10.50;1.00;;;;;;5073903;28;20181;-73
2022/03/17 11:11:28;;;;;;;0.60;0.60;;;10.70;99.90;;;;;;5074609;28;20195;-73
2022/03/17 11:13:56;;;;;;;0.40;0.40;;;10.90;84.80;;;;;;5074866;28;20182;-72
2022/03/17 11:16:24;;;;;;;0.50;0.50;;;10.90;99.90;;;;;;5074688;28;20184;-72
2022/03/17 11:18:50;;;;;;;0.50;0.50;;;11.10;1.00;;;;;;5074579;28;20179;-74
2022/03/17 11:21:19;;;;;;;0.50;0.50;;;11.20;1.00;;;;;;5074160;28;20207;-72
2022/03/17 11:23:56;;;;;;;0.50;0.50;;;11.40;92.70;;;;;;5073910;28;20595;-73
2022/03/17 11:26:44;;;;;;;0.40;0.40;;;11.50;1.00;;;;;;5074256;28;20525;-72
2022/03/17 11:29:18;;;;;;;0.50;0.50;;;11.50;1.00;;;;;;5073917;28;20182;-71
2022/03/17 11:31:52;;;;;;;0.50;0.50;;;11.50;99.90;;;;;;5074327;28;20171;-73
2022/03/17 11:34:46;;;;;;;0.60;0.60;;;11.50;99.90;;;;;;5074320;28;20668;-73
2022/03/17 11:37:21;;;;;;;0.40;0.40;;;11.50;99.90;;;;;;5074340;28;20601;-71
2022/03/17 11:39:52;;;;;;;0.50;0.50;;;11.70;1.00;;;;;;5073727;28;20189;-71
2022/03/17 11:42:31;;;;;;;0.57;0.57;;;11.70;82.60;;;;;;5073976;28;20237;-73
2022/03/17 11:45:20;;;;;;;0.50;0.50;;;11.70;1.00;;;;;;5074139;28;20264;-72
2022/03/17 11:47:56;;;;;;;0.40;0.40;;;11.60;1.00;;;;;;5068494;28;20178;-72
2022/03/17 11:50:36;;;;;;;0.40;0.40;;;11.50;1.00;;;;;;5073612;28;20576;-73
2022/03/17 11:53:19;;;;;;;0.50;0.50;;;11.50;1.00;;;;;;5074507;28;20693;-71
2022/03/17 11:55:45;;;;;;;0.50;0.50;;;11.40;94.10;;;;;;5074081;28;20201;-72
2022/03/17 11:58:25;;;;;;;0.50;0.50;;;11.50;99.90;;;;;;5074000;28;20233;-72
2022/03/17 12:00:53;;;;;;;0.47;0.47;;;11.60;10.00;;;;;;5073119;28;20206;-71
2022/03/17 12:03:30;;;;;;;0.47;0.47;;;11.50;1.00;;;;;;5073790;28;20244;-71
2022/03/17 12:06:12;;;;;;;0.50;0.50;;;11.50;99.90;;;;;;5073869;28;20189;-72
2022/03/17 12:09:04;;;;;;;0.50;0.50;;;11.30;99.90;;;;;;5073448;28;20170;-72
2022/03/17 12:11:39;;;;;;;0.50;0.50;;;11.30;1.00;;;;;;5068823;28;20218;-73
2022/03/17 12:14:17;;;;;;;0.60;0.60;;;11.20;1.00;;;;;;5073543;28;20664;-72
2022/03/17 12:16:55;;;;;;;0.40;0.40;;;11.10;90.40;;;;;;5073595;28;20175;-73
2022/03/17 12:19:48;;;;;;;0.60;0.60;;;11.20;99.40;;;;;;5072904;28;20661;-72
2022/03/17 12:22:19;;;;;;;0.50;0.50;;;11.10;99.90;;;;;;5073486;28;20679;-71
2022/03/17 12:25:00;;;;;;;0.50;0.50;;;11.00;1.00;;;;;;5073577;28;20634;-74
2022/03/17 12:27:31;;;;;;;0.63;0.63;;;11.00;1.00;;;;;;5073697;28;20257;-73
2022/03/17 12:29:59;;;;;;;0.50;0.50;;;11.00;1.00;;;;;;5072816;28;20586;-73
2022/03/17 12:32:28;;;;;;;0.50;0.50;;;11.10;1.00;;;;;;5073233;28;20185;-72
2022/03/17 12:34:54;;;;;;;0.50;0.50;;;11.10;1.00;;;;;;5072826;28;20201;-72
2022/03/17 12:37:23;;;;;;;0.60;0.60;;;11.00;1.00;;;;;;5073246;28;20641;-69
2022/03/17 12:39:50;;;;;;;0.50;0.50;;;10.90;1.00;;;;;;5072656;28;20217;-72
2022/03/17 12:42:18;;;;;;;0.50;0.50;;;10.90;1.00;;;;;;5073109;28;20289;-70
2022/03/17 12:44:48;;;;;;;0.50;0.50;;;11.00;1.00;;;;;;5073351;28;20170;-71
2022/03/17 12:47:14;;;;;;;0.50;0.50;;;11.00;1.00;;;;;;5073317;28;20181;-72
2022/03/17 12:49:41;;;;;;;0.50;0.50;;;11.00;1.00;;;;;;5072432;28;20595;-71
2022/03/17 12:52:20;;;;;;;0.60;0.60;;;11.10;1.00;;;;;;5072940;28;20182;-71
2022/03/17 12:54:46;;;;;;;0.50;0.50;;;11.10;1.00;;;;;;5072914;28;20174;-73
2022/03/17 12:57:11;;;;;;;0.50;0.50;;;11.10;1.00;;;;;;5072763;28;20555;-71
2022/03/17 12:59:37;;;;;;;0.50;0.50;;;11.20;1.00;;;;;;5073960;28;20289;-73
2022/03/17 13:02:05;;;;;;;0.60;0.60;;;11.10;1.00;;;;;;5072718;28;20210;-73
2022/03/17 13:04:30;;;;;;;0.40;0.40;;;11.10;1.00;;;;;;5072781;28;20277;-71
2022/03/17 13:06:57;;;;;;;0.50;0.50;;;11.00;1.00;;;;;;5072556;28;20265;-71
2022/03/17 13:09:32;;;;;;;0.40;0.40;;;11.10;1.00;;;;;;5071863;28;20228;-71
2022/03/17 13:14:51;;;;;;;0.60;0.60;;;11.20;1.00;;;;;;5072370;28;20173;-71
2022/03/17 13:17:36;;;;;;;0.50;0.50;;;11.20;1.00;;;;;;5072401;28;20212;-71
2022/03/17 13:20:02;;;;;;;0.50;0.50;;;11.20;1.00;;;;;;5071771;28;20201;-72
2022/03/17 13:22:34;;;;;;;0.60;0.60;;;11.10;1.00;;;;;;5073342;28;20217;-73
2022/03/17 13:25:14;;;;;;;0.53;0.53;;;11.10;1.00;;;;;;5072467;28;20521;-72